sensor_id;sensor_type;location;lat;lon;timestamp;temperature;humidity
12452;DHT22;6291;48.924;12.204;2023-04-01T00:00:20;8.70;1.00
12452;DHT22;6291;48.924;12.204;2023-04-01T00:05:23;8.70;1.00
12452;DHT22;6291;48.924;12.204;2023-04-01T00:10:27;8.60;1.00
12452;DHT22;6291;48.924;12.204;2023-04-01T00:15:33;8.60;1.00
12452;DHT22;6291;48.924;12.204;2023-04-01T00:20:37;8.50;1.00
12452;DHT22;6291;48.924;12.204;2023-04-01T00:25:41;8.50;1.00
12452;DHT22;6291;48.924;12.204;2023-04-01T00:30:46;8.40;1.00
12452;DHT22;6291;48.924;12.204;2023-04-01T00:35:50;8.40;1.00
12452;DHT22;6291;48.924;12.204;2023-04-01T00:40:57;8.40;1.00
12452;DHT22;6291;48.924;12.204;2023-04-01T00:46:03;8.50;1.00
12452;DHT22;6291;48.924;12.204;2023-04-01T00:51:09;8.60;1.00
12452;DHT22;6291;48.924;12.204;2023-04-01T00:56:15;8.60;1.00
12452;DHT22;6291;48.924;12.204;2023-04-01T01:01:22;8.60;1.00
12452;DHT22;6291;48.924;12.204;2023-04-01T01:06:39;8.60;1.00
12452;DHT22;6291;48.924;12.204;2023-04-01T01:11:50;8.60;1.00
12452;DHT22;6291;48.924;12.204;2023-04-01T01:16:59;8.50;1.00
12452;DHT22;6291;48.924;12.204;2023-04-01T01:22:13;8.40;1.00
12452;DHT22;6291;48.924;12.204;2023-04-01T01:27:20;8.60;1.00
12452;DHT22;6291;48.924;12.204;2023-04-01T01:32:36;8.50;1.00
12452;DHT22;6291;48.924;12.204;2023-04-01T01:37:43;8.50;1.00
12452;DHT22;6291;48.924;12.204;2023-04-01T01:42:51;8.50;1.00
12452;DHT22;6291;48.924;12.204;2023-04-01T01:47:58;8.50;1.00
12452;DHT22;6291;48.924;12.204;2023-04-01T01:53:06;8.40;1.00
12452;DHT22;6291;48.924;12.204;2023-04-01T01:58:13;8.40;1.00
12452;DHT22;6291;48.924;12.204;2023-04-01T02:03:20;8.40;1.00
12452;DHT22;6291;48.924;12.204;2023-04-01T02:08:30;8.40;1.00
12452;DHT22;6291;48.924;12.204;2023-04-01T02:13:39;8.40;1.00
12452;DHT22;6291;48.924;12.204;2023-04-01T02:18:44;8.30;1.00
12452;DHT22;6291;48.924;12.204;2023-04-01T02:23:51;8.30;1.00
12452;DHT22;6291;48.924;12.204;2023-04-01T02:28:56;8.30;1.00
12452;DHT22;6291;48.924;12.204;2023-04-01T02:34:02;8.30;1.00
12452;DHT22;6291;48.924;12.204;2023-04-01T02:39:08;8.20;1.00
12452;DHT22;6291;48.924;12.204;2023-04-01T02:44:13;8.20;1.00
12452;DHT22;6291;48.924;12.204;2023-04-01T02:49:17;8.10;1.00
12452;DHT22;6291;48.924;12.204;2023-04-01T02:54:22;8.10;1.00
12452;DHT22;6291;48.924;12.204;2023-04-01T02:59:26;8.10;1.00
12452;DHT22;6291;48.924;12.204;2023-04-01T03:04:29;8.10;1.00
12452;DHT22;6291;48.924;12.204;2023-04-01T03:09:34;8.10;1.00
12452;DHT22;6291;48.924;12.204;2023-04-01T03:14:38;8.00;1.00
12452;DHT22;6291;48.924;12.204;2023-04-01T03:19:41;8.00;1.00
12452;DHT22;6291;48.924;12.204;2023-04-01T03:24:46;8.00;1.00
12452;DHT22;6291;48.924;12.204;2023-04-01T03:29:50;8.00;1.00
12452;DHT22;6291;48.924;12.204;2023-04-01T03:34:54;8.00;1.00
12452;DHT22;6291;48.924;12.204;2023-04-01T03:39:59;7.90;1.00
12452;DHT22;6291;48.924;12.204;2023-04-01T03:45:03;8.30;1.00
12452;DHT22;6291;48.924;12.204;2023-04-01T03:50:07;7.80;1.00
12452;DHT22;6291;48.924;12.204;2023-04-01T03:55:13;7.80;1.00
12452;DHT22;6291;48.924;12.204;2023-04-01T04:00:18;7.80;1.00
12452;DHT22;6291;48.924;12.204;2023-04-01T04:05:27;7.70;1.00
12452;DHT22;6291;48.924;12.204;2023-04-01T04:10:33;7.70;1.00
12452;DHT22;6291;48.924;12.204;2023-04-01T04:15:38;7.60;1.00
12452;DHT22;6291;48.924;12.204;2023-04-01T04:20:44;7.60;1.00
12452;DHT22;6291;48.924;12.204;2023-04-01T04:25:59;7.70;1.00
12452;DHT22;6291;48.924;12.204;2023-04-01T04:31:04;7.60;1.00
12452;DHT22;6291;48.924;12.204;2023-04-01T04:36:09;7.70;1.00
12452;DHT22;6291;48.924;12.204;2023-04-01T04:41:15;7.70;1.00
12452;DHT22;6291;48.924;12.204;2023-04-01T04:46:23;7.80;1.00
12452;DHT22;6291;48.924;12.204;2023-04-01T04:51:39;7.70;1.00
12452;DHT22;6291;48.924;12.204;2023-04-01T04:56:44;7.70;1.00
12452;DHT22;6291;48.924;12.204;2023-04-01T05:01:48;8.00;1.00
12452;DHT22;6291;48.924;12.204;2023-04-01T05:06:52;7.80;1.00
12452;DHT22;6291;48.924;12.204;2023-04-01T05:11:57;7.80;1.00
12452;DHT22;6291;48.924;12.204;2023-04-01T05:17:03;7.70;1.00
12452;DHT22;6291;48.924;12.204;2023-04-01T05:22:07;7.70;1.00
12452;DHT22;6291;48.924;12.204;2023-04-01T05:27:12;7.60;1.00
12452;DHT22;6291;48.924;12.204;2023-04-01T05:32:17;7.70;1.00
12452;DHT22;6291;48.924;12.204;2023-04-01T05:37:21;7.70;1.00
12452;DHT22;6291;48.924;12.204;2023-04-01T05:42:26;7.90;1.00
12452;DHT22;6291;48.924;12.204;2023-04-01T05:47:30;7.90;1.00
12452;DHT22;6291;48.924;12.204;2023-04-01T05:52:33;7.90;1.00
12452;DHT22;6291;48.924;12.204;2023-04-01T05:57:39;8.00;1.00
12452;DHT22;6291;48.924;12.204;2023-04-01T06:02:43;8.00;1.00
12452;DHT22;6291;48.924;12.204;2023-04-01T06:07:47;8.10;1.00
12452;DHT22;6291;48.924;12.204;2023-04-01T06:12:57;8.20;1.00
12452;DHT22;6291;48.924;12.204;2023-04-01T06:23:54;8.30;1.00
12452;DHT22;6291;48.924;12.204;2023-04-01T06:29:19;8.30;1.00
12452;DHT22;6291;48.924;12.204;2023-04-01T06:34:47;8.30;1.00
12452;DHT22;6291;48.924;12.204;2023-04-01T06:40:03;8.40;1.00
12452;DHT22;6291;48.924;12.204;2023-04-01T06:45:28;8.40;1.00
12452;DHT22;6291;48.924;12.204;2023-04-01T06:51:00;8.50;1.00
12452;DHT22;6291;48.924;12.204;2023-04-01T06:56:27;8.60;1.00
12452;DHT22;6291;48.924;12.204;2023-04-01T07:01:38;8.70;1.00
12452;DHT22;6291;48.924;12.204;2023-04-01T07:06:46;8.70;1.00
12452;DHT22;6291;48.924;12.204;2023-04-01T07:11:50;8.80;1.00
12452;DHT22;6291;48.924;12.204;2023-04-01T07:17:22;8.90;1.00
12452;DHT22;6291;48.924;12.204;2023-04-01T07:22:29;9.00;1.00
12452;DHT22;6291;48.924;12.204;2023-04-01T07:27:41;9.10;1.00
12452;DHT22;6291;48.924;12.204;2023-04-01T07:32:50;9.40;1.00
12452;DHT22;6291;48.924;12.204;2023-04-01T07:38:05;9.50;1.00
12452;DHT22;6291;48.924;12.204;2023-04-01T07:43:31;9.80;1.00
12452;DHT22;6291;48.924;12.204;2023-04-01T07:48:55;9.90;1.00
12452;DHT22;6291;48.924;12.204;2023-04-01T07:54:08;10.00;1.00
12452;DHT22;6291;48.924;12.204;2023-04-01T07:59:19;9.90;1.00
12452;DHT22;6291;48.924;12.204;2023-04-01T08:04:43;10.20;1.00
12452;DHT22;6291;48.924;12.204;2023-04-01T08:09:55;10.30;1.00
12452;DHT22;6291;48.924;12.204;2023-04-01T08:15:46;10.70;1.00
12452;DHT22;6291;48.924;12.204;2023-04-01T08:21:21;10.40;1.00
12452;DHT22;6291;48.924;12.204;2023-04-01T08:26:30;10.30;1.00
12452;DHT22;6291;48.924;12.204;2023-04-01T08:31:37;10.50;1.00
12452;DHT22;6291;48.924;12.204;2023-04-01T08:36:47;10.90;1.00
12452;DHT22;6291;48.924;12.204;2023-04-01T08:47:50;11.30;1.00
12452;DHT22;6291;48.924;12.204;2023-04-01T08:53:06;11.80;1.00
12452;DHT22;6291;48.924;12.204;2023-04-01T08:58:42;12.00;1.00
12452;DHT22;6291;48.924;12.204;2023-04-01T09:04:14;11.50;1.00
12452;DHT22;6291;48.924;12.204;2023-04-01T09:09:48;11.70;1.00
12452;DHT22;6291;48.924;12.204;2023-04-01T09:15:06;12.90;1.00
12452;DHT22;6291;48.924;12.204;2023-04-01T09:20:29;12.20;1.00
12452;DHT22;6291;48.924;12.204;2023-04-01T09:25:58;12.00;1.00
12452;DHT22;6291;48.924;12.204;2023-04-01T09:31:22;11.00;1.00
12452;DHT22;6291;48.924;12.204;2023-04-01T09:37:01;11.00;1.00
12452;DHT22;6291;48.924;12.204;2023-04-01T09:42:43;10.90;1.00
12452;DHT22;6291;48.924;12.204;2023-04-01T09:48:05;11.20;1.00
12452;DHT22;6291;48.924;12.204;2023-04-01T09:53:28;11.40;1.00
12452;DHT22;6291;48.924;12.204;2023-04-01T10:05:04;11.30;1.00
12452;DHT22;6291;48.924;12.204;2023-04-01T10:10:58;11.80;1.00
12452;DHT22;6291;48.924;12.204;2023-04-01T10:16:37;11.30;1.00
12452;DHT22;6291;48.924;12.204;2023-04-01T10:27:33;11.60;1.00
12452;DHT22;6291;48.924;12.204;2023-04-01T10:33:33;11.50;1.00
12452;DHT22;6291;48.924;12.204;2023-04-01T10:39:08;11.30;1.00
12452;DHT22;6291;48.924;12.204;2023-04-01T10:44:58;11.40;1.00
12452;DHT22;6291;48.924;12.204;2023-04-01T10:50:43;11.30;1.00
12452;DHT22;6291;48.924;12.204;2023-04-01T11:09:15;11.10;1.00
12452;DHT22;6291;48.924;12.204;2023-04-01T11:15:05;11.30;1.00
12452;DHT22;6291;48.924;12.204;2023-04-01T11:20:47;11.40;1.00
12452;DHT22;6291;48.924;12.204;2023-04-01T11:26:08;11.30;1.00
12452;DHT22;6291;48.924;12.204;2023-04-01T11:31:49;11.40;1.00
12452;DHT22;6291;48.924;12.204;2023-04-01T11:37:02;11.20;1.00
12452;DHT22;6291;48.924;12.204;2023-04-01T11:42:20;11.40;1.00
12452;DHT22;6291;48.924;12.204;2023-04-01T11:47:59;10.80;1.00
12452;DHT22;6291;48.924;12.204;2023-04-01T11:53:22;10.80;1.00
12452;DHT22;6291;48.924;12.204;2023-04-01T11:58:52;9.90;1.00
12452;DHT22;6291;48.924;12.204;2023-04-01T12:09:52;9.10;1.00
12452;DHT22;6291;48.924;12.204;2023-04-01T12:15:14;9.60;1.00
12452;DHT22;6291;48.924;12.204;2023-04-01T12:20:38;9.60;1.00
12452;DHT22;6291;48.924;12.204;2023-04-01T12:26:10;9.60;9.20
12452;DHT22;6291;48.924;12.204;2023-04-01T12:31:35;9.40;39.60
12452;DHT22;6291;48.924;12.204;2023-04-01T12:36:53;9.30;1.00
12452;DHT22;6291;48.924;12.204;2023-04-01T12:42:07;9.40;99.90
12452;DHT22;6291;48.924;12.204;2023-04-01T12:47:38;9.30;99.90
12452;DHT22;6291;48.924;12.204;2023-04-01T12:52:58;9.10;99.90
12452;DHT22;6291;48.924;12.204;2023-04-01T12:58:30;9.30;99.90
12452;DHT22;6291;48.924;12.204;2023-04-01T13:09:25;9.50;99.90
12452;DHT22;6291;48.924;12.204;2023-04-01T13:20:19;9.40;99.90
12452;DHT22;6291;48.924;12.204;2023-04-01T13:25:30;9.30;1.00
12452;DHT22;6291;48.924;12.204;2023-04-01T13:30:44;9.10;13.50
12452;DHT22;6291;48.924;12.204;2023-04-01T13:36:00;9.10;99.90
12452;DHT22;6291;48.924;12.204;2023-04-01T13:41:10;9.20;99.90
12452;DHT22;6291;48.924;12.204;2023-04-01T13:46:43;9.20;1.00
12452;DHT22;6291;48.924;12.204;2023-04-01T13:57:43;9.10;1.00
12452;DHT22;6291;48.924;12.204;2023-04-01T14:03:16;9.10;1.00
12452;DHT22;6291;48.924;12.204;2023-04-01T14:08:35;9.20;99.90
12452;DHT22;6291;48.924;12.204;2023-04-01T14:13:52;9.20;99.90
12452;DHT22;6291;48.924;12.204;2023-04-01T14:19:10;9.20;99.90
12452;DHT22;6291;48.924;12.204;2023-04-01T14:24:23;9.10;1.00
12452;DHT22;6291;48.924;12.204;2023-04-01T14:29:37;9.10;45.00
12452;DHT22;6291;48.924;12.204;2023-04-01T14:35:05;9.30;1.00
12452;DHT22;6291;48.924;12.204;2023-04-01T14:40:26;9.30;1.00
12452;DHT22;6291;48.924;12.204;2023-04-01T14:45:55;9.50;1.00
12452;DHT22;6291;48.924;12.204;2023-04-01T14:51:09;9.40;99.90
12452;DHT22;6291;48.924;12.204;2023-04-01T14:56:40;9.80;99.90
12452;DHT22;6291;48.924;12.204;2023-04-01T15:01:50;9.90;64.20
12452;DHT22;6291;48.924;12.204;2023-04-01T15:07:05;9.60;99.90
12452;DHT22;6291;48.924;12.204;2023-04-01T15:12:21;9.50;86.70
12452;DHT22;6291;48.924;12.204;2023-04-01T15:17:41;9.40;99.90
12452;DHT22;6291;48.924;12.204;2023-04-01T15:22:58;9.20;99.90
12452;DHT22;6291;48.924;12.204;2023-04-01T15:28:11;9.20;1.00
12452;DHT22;6291;48.924;12.204;2023-04-01T15:33:36;9.20;16.50
12452;DHT22;6291;48.924;12.204;2023-04-01T15:38:46;9.30;99.90
12452;DHT22;6291;48.924;12.204;2023-04-01T15:43:51;9.20;1.00
12452;DHT22;6291;48.924;12.204;2023-04-01T15:49:03;9.30;1.00
12452;DHT22;6291;48.924;12.204;2023-04-01T15:54:25;9.30;1.00
12452;DHT22;6291;48.924;12.204;2023-04-01T15:59:47;9.40;99.90
12452;DHT22;6291;48.924;12.204;2023-04-01T16:04:59;9.50;99.90
12452;DHT22;6291;48.924;12.204;2023-04-01T16:10:38;9.50;95.60
12452;DHT22;6291;48.924;12.204;2023-04-01T16:15:53;9.40;1.00
12452;DHT22;6291;48.924;12.204;2023-04-01T16:21:08;9.40;99.90
12452;DHT22;6291;48.924;12.204;2023-04-01T16:26:20;9.40;99.90
12452;DHT22;6291;48.924;12.204;2023-04-01T16:31:34;9.50;1.00
12452;DHT22;6291;48.924;12.204;2023-04-01T16:36:43;9.40;99.90
12452;DHT22;6291;48.924;12.204;2023-04-01T16:41:51;9.40;1.00
12452;DHT22;6291;48.924;12.204;2023-04-01T16:46:59;9.40;95.80
12452;DHT22;6291;48.924;12.204;2023-04-01T16:52:30;9.40;1.00
12452;DHT22;6291;48.924;12.204;2023-04-01T16:57:42;9.40;99.90
12452;DHT22;6291;48.924;12.204;2023-04-01T17:02:52;9.40;99.90
12452;DHT22;6291;48.924;12.204;2023-04-01T17:08:07;9.40;99.90
12452;DHT22;6291;48.924;12.204;2023-04-01T17:13:35;10.80;99.90
12452;DHT22;6291;48.924;12.204;2023-04-01T17:18:49;9.30;99.90
12452;DHT22;6291;48.924;12.204;2023-04-01T17:24:08;9.20;1.00
12452;DHT22;6291;48.924;12.204;2023-04-01T17:29:24;9.20;99.90
12452;DHT22;6291;48.924;12.204;2023-04-01T17:34:46;9.10;99.90
12452;DHT22;6291;48.924;12.204;2023-04-01T17:40:07;9.10;99.90
12452;DHT22;6291;48.924;12.204;2023-04-01T17:45:21;9.00;1.00
12452;DHT22;6291;48.924;12.204;2023-04-01T17:50:35;9.00;99.90
12452;DHT22;6291;48.924;12.204;2023-04-01T17:55:55;8.90;1.00
12452;DHT22;6291;48.924;12.204;2023-04-01T18:01:17;8.80;1.00
12452;DHT22;6291;48.924;12.204;2023-04-01T18:06:29;8.80;99.90
12452;DHT22;6291;48.924;12.204;2023-04-01T18:11:45;8.70;99.90
12452;DHT22;6291;48.924;12.204;2023-04-01T18:17:16;8.70;1.00
12452;DHT22;6291;48.924;12.204;2023-04-01T18:22:26;8.70;1.00
12452;DHT22;6291;48.924;12.204;2023-04-01T18:27:37;8.70;1.00
12452;DHT22;6291;48.924;12.204;2023-04-01T18:32:46;8.70;99.90
12452;DHT22;6291;48.924;12.204;2023-04-01T18:37:55;8.70;1.00
12452;DHT22;6291;48.924;12.204;2023-04-01T18:43:10;8.80;99.90
12452;DHT22;6291;48.924;12.204;2023-04-01T18:48:27;8.80;99.90
12452;DHT22;6291;48.924;12.204;2023-04-01T18:53:37;8.80;99.90
12452;DHT22;6291;48.924;12.204;2023-04-01T18:58:47;10.90;1.00
12452;DHT22;6291;48.924;12.204;2023-04-01T19:04:05;8.80;1.00
12452;DHT22;6291;48.924;12.204;2023-04-01T19:09:21;8.80;99.90
12452;DHT22;6291;48.924;12.204;2023-04-01T19:14:33;8.80;1.00
12452;DHT22;6291;48.924;12.204;2023-04-01T19:19:51;8.80;99.90
12452;DHT22;6291;48.924;12.204;2023-04-01T19:25:23;8.80;1.00
12452;DHT22;6291;48.924;12.204;2023-04-01T19:30:39;8.80;1.00
12452;DHT22;6291;48.924;12.204;2023-04-01T19:35:49;8.70;1.00
12452;DHT22;6291;48.924;12.204;2023-04-01T19:41:03;8.50;1.00
12452;DHT22;6291;48.924;12.204;2023-04-01T19:46:18;8.70;1.00
12452;DHT22;6291;48.924;12.204;2023-04-01T19:51:27;8.70;1.00
12452;DHT22;6291;48.924;12.204;2023-04-01T19:56:36;8.70;99.90
12452;DHT22;6291;48.924;12.204;2023-04-01T20:01:48;8.70;99.90
12452;DHT22;6291;48.924;12.204;2023-04-01T20:06:54;8.70;1.00
12452;DHT22;6291;48.924;12.204;2023-04-01T20:12:04;8.80;1.00
12452;DHT22;6291;48.924;12.204;2023-04-01T20:17:19;8.80;99.90
12452;DHT22;6291;48.924;12.204;2023-04-01T20:22:34;8.80;99.90
12452;DHT22;6291;48.924;12.204;2023-04-01T20:27:44;8.80;99.90
12452;DHT22;6291;48.924;12.204;2023-04-01T20:33:06;8.70;1.00
12452;DHT22;6291;48.924;12.204;2023-04-01T20:38:41;8.80;99.90
12452;DHT22;6291;48.924;12.204;2023-04-01T20:44:00;8.70;99.90
12452;DHT22;6291;48.924;12.204;2023-04-01T20:49:30;8.80;99.90
12452;DHT22;6291;48.924;12.204;2023-04-01T20:54:47;8.80;99.90
12452;DHT22;6291;48.924;12.204;2023-04-01T21:00:04;8.80;99.90
12452;DHT22;6291;48.924;12.204;2023-04-01T21:05:33;8.80;61.60
12452;DHT22;6291;48.924;12.204;2023-04-01T21:10:43;8.80;53.30
12452;DHT22;6291;48.924;12.204;2023-04-01T21:15:55;8.80;58.00
12452;DHT22;6291;48.924;12.204;2023-04-01T21:21:39;8.80;1.00
12452;DHT22;6291;48.924;12.204;2023-04-01T21:26:50;8.80;7.60
12452;DHT22;6291;48.924;12.204;2023-04-01T21:32:14;8.70;2.20
12452;DHT22;6291;48.924;12.204;2023-04-01T21:37:50;8.80;1.00
12452;DHT22;6291;48.924;12.204;2023-04-01T21:43:04;8.80;11.20
12452;DHT22;6291;48.924;12.204;2023-04-01T21:48:37;8.80;3.50
12452;DHT22;6291;48.924;12.204;2023-04-01T21:59:47;8.70;99.90
12452;DHT22;6291;48.924;12.204;2023-04-01T22:05:03;8.70;99.90
12452;DHT22;6291;48.924;12.204;2023-04-01T22:10:19;8.60;99.90
12452;DHT22;6291;48.924;12.204;2023-04-01T22:15:40;8.60;99.90
12452;DHT22;6291;48.924;12.204;2023-04-01T22:20:52;8.60;99.90
12452;DHT22;6291;48.924;12.204;2023-04-01T22:26:03;8.70;99.90
12452;DHT22;6291;48.924;12.204;2023-04-01T22:31:13;8.60;99.90
12452;DHT22;6291;48.924;12.204;2023-04-01T22:36:25;8.70;99.90
12452;DHT22;6291;48.924;12.204;2023-04-01T22:41:42;8.60;99.90
12452;DHT22;6291;48.924;12.204;2023-04-01T22:46:57;8.60;99.90
12452;DHT22;6291;48.924;12.204;2023-04-01T22:52:08;8.60;92.10
12452;DHT22;6291;48.924;12.204;2023-04-01T22:57:35;8.60;29.20
12452;DHT22;6291;48.924;12.204;2023-04-01T23:02:45;8.50;18.90
12452;DHT22;6291;48.924;12.204;2023-04-01T23:07:55;8.60;1.00
12452;DHT22;6291;48.924;12.204;2023-04-01T23:13:01;8.60;1.00
12452;DHT22;6291;48.924;12.204;2023-04-01T23:18:15;8.60;1.00
12452;DHT22;6291;48.924;12.204;2023-04-01T23:23:30;8.60;1.00
12452;DHT22;6291;48.924;12.204;2023-04-01T23:28:45;8.50;1.00
12452;DHT22;6291;48.924;12.204;2023-04-01T23:33:54;8.50;1.00
12452;DHT22;6291;48.924;12.204;2023-04-01T23:39:05;8.50;1.00
12452;DHT22;6291;48.924;12.204;2023-04-01T23:44:11;8.60;1.00
12452;DHT22;6291;48.924;12.204;2023-04-01T23:49:20;8.50;1.00
12452;DHT22;6291;48.924;12.204;2023-04-01T23:54:31;8.50;1.00
12452;DHT22;6291;48.924;12.204;2023-04-01T23:59:36;8.40;1.00
